createdAt,value
2018-01-26T00:01:05.595Z,20.30
2018-01-26T00:03:33.433Z,20.30
2018-01-26T00:06:03.389Z,19.87
2018-01-26T00:08:31.651Z,18.47
2018-01-26T00:11:00.862Z,18.50
2018-01-26T00:13:28.810Z,19.20
2018-01-26T00:15:56.846Z,16.67
2018-01-26T00:18:24.761Z,18.53
2018-01-26T00:20:54.483Z,16.90
2018-01-26T00:23:22.339Z,18.60
2018-01-26T00:25:50.195Z,17.23
2018-01-26T00:28:18.043Z,18.60
2018-01-26T00:30:46.828Z,18.17
2018-01-26T00:33:14.683Z,18.50
2018-01-26T00:35:42.540Z,18.63
2018-01-26T00:38:10.739Z,18.13
2018-01-26T00:40:38.755Z,18.00
2018-01-26T00:43:06.657Z,16.83
2018-01-26T00:45:34.498Z,16.83
2018-01-26T00:48:03.284Z,15.70
2018-01-26T00:50:31.232Z,17.67
2018-01-26T00:52:59.125Z,19.10
2018-01-26T00:55:27.016Z,21.43
2018-01-26T00:57:54.868Z,16.07
2018-01-26T01:00:22.855Z,17.87
2018-01-26T01:02:50.737Z,20.80
2018-01-26T01:05:18.591Z,20.00
2018-01-26T01:07:47.744Z,18.07
2018-01-26T01:10:16.497Z,18.87
2018-01-26T01:12:44.423Z,18.87
2018-01-26T01:15:12.487Z,19.13
2018-01-26T01:17:55.377Z,17.90
2018-01-26T01:20:23.229Z,18.33
2018-01-26T01:22:51.280Z,18.10
2018-01-26T01:25:19.396Z,21.23
2018-01-26T01:27:47.424Z,19.67
2018-01-26T01:30:16.338Z,17.63
2018-01-26T01:32:49.587Z,18.03
2018-01-26T06:00:27.554Z,28.50
2018-01-26T06:02:56.189Z,27.60
2018-01-26T06:08:20.323Z,29.30
2018-01-26T06:10:48.199Z,33.60
2018-01-26T06:13:16.073Z,28.60
2018-01-26T06:15:43.906Z,27.37
2018-01-26T06:18:11.764Z,29.33
2018-01-26T06:20:39.625Z,30.87
2018-01-26T06:23:07.472Z,28.47
2018-01-26T06:25:35.305Z,27.10
2018-01-26T06:28:03.136Z,27.37
2018-01-26T06:30:30.952Z,28.40
2018-01-26T06:32:58.769Z,30.67
2018-01-26T06:35:26.625Z,26.40
2018-01-26T06:37:54.575Z,29.63
2018-01-26T06:40:22.439Z,30.60
2018-01-26T06:42:50.277Z,29.23
2018-01-26T06:45:18.091Z,25.07
2018-01-26T06:47:45.927Z,30.07
2018-01-26T06:50:13.740Z,29.40
2018-01-26T06:52:41.557Z,29.33
2018-01-26T06:55:09.378Z,31.37
2018-01-26T06:57:37.216Z,31.57
2018-01-26T07:00:05.043Z,31.27
2018-01-26T07:02:32.876Z,31.90
2018-01-26T07:05:00.704Z,31.47
2018-01-26T07:07:28.576Z,30.43
2018-01-26T07:09:56.540Z,32.33
2018-01-26T07:12:24.344Z,32.20
2018-01-26T07:14:52.143Z,33.97
2018-01-26T07:17:20.010Z,31.47
2018-01-26T07:19:47.808Z,29.60
2018-01-26T07:22:15.623Z,31.13
2018-01-26T07:24:43.437Z,31.90
2018-01-26T07:27:11.235Z,30.27
2018-01-26T07:29:39.060Z,29.93
2018-01-26T07:32:06.921Z,32.10
2018-01-26T07:34:34.741Z,31.70
2018-01-26T07:37:02.937Z,33.33
2018-01-26T07:39:30.900Z,34.07
2018-01-26T07:41:58.736Z,29.43
2018-01-26T07:44:26.553Z,32.27
2018-01-26T07:46:54.400Z,32.50
2018-01-26T07:49:22.276Z,33.13
2018-01-26T07:51:50.107Z,34.20
2018-01-26T07:54:17.944Z,34.20
2018-01-26T07:56:45.830Z,34.57
2018-01-26T07:59:14.729Z,36.77
2018-01-26T08:01:42.811Z,35.00
2018-01-26T08:07:06.401Z,36.03
2018-01-26T08:09:34.264Z,34.43
2018-01-26T08:12:02.075Z,40.73
2018-01-26T08:14:29.922Z,40.80
2018-01-26T08:16:58.555Z,37.90
2018-01-26T08:19:26.393Z,42.67
2018-01-26T08:21:54.216Z,41.10
2018-01-26T08:24:22.054Z,44.20
2018-01-26T08:26:50.241Z,43.07
2018-01-26T08:29:18.073Z,41.20
2018-01-26T08:31:45.886Z,41.83
2018-01-26T08:34:13.725Z,41.17
2018-01-26T08:36:41.541Z,42.20
2018-01-26T08:39:09.396Z,42.13
2018-01-26T08:41:37.221Z,43.43
2018-01-26T08:44:05.068Z,42.90
2018-01-26T08:46:32.917Z,43.57
2018-01-26T08:49:00.726Z,43.90
2018-01-26T08:51:28.904Z,42.50
2018-01-26T08:53:56.723Z,40.50
2018-01-26T08:56:24.560Z,39.93
2018-01-26T08:58:52.376Z,39.30
2018-01-26T09:01:20.207Z,43.53
2018-01-26T09:03:48.035Z,42.87
2018-01-26T09:06:15.965Z,43.73
2018-01-26T09:08:43.772Z,46.70
2018-01-26T09:11:11.592Z,46.53
2018-01-26T09:13:39.395Z,49.30
2018-01-26T09:16:07.233Z,46.50
2018-01-26T09:18:35.053Z,49.30
2018-01-26T09:21:02.872Z,47.20
2018-01-26T09:23:30.684Z,52.17
2018-01-26T09:25:58.507Z,48.27
2018-01-26T09:28:26.333Z,41.40
2018-01-26T09:30:54.143Z,47.97
2018-01-26T09:33:22.013Z,45.07
2018-01-26T09:35:49.879Z,43.87
2018-01-26T09:38:17.705Z,43.77
2018-01-26T09:40:45.511Z,44.80
2018-01-26T09:43:13.383Z,44.13
2018-01-26T09:45:41.224Z,41.77
2018-01-26T09:48:09.135Z,42.90
2018-01-26T09:50:36.977Z,41.33
2018-01-26T09:53:04.803Z,43.60
2018-01-26T09:55:32.652Z,44.40
2018-01-26T09:58:00.443Z,45.17
2018-01-26T10:00:28.264Z,45.13
2018-01-26T10:02:56.095Z,46.90
2018-01-26T10:05:23.928Z,43.57
2018-01-26T10:07:51.752Z,44.77
2018-01-26T10:10:19.588Z,42.77
2018-01-26T10:12:47.450Z,45.83
2018-01-26T10:15:15.262Z,45.73
2018-01-26T10:17:43.083Z,42.53
2018-01-26T10:20:10.904Z,45.60
2018-01-26T10:22:38.738Z,44.43
2018-01-26T10:25:06.576Z,42.57
2018-01-26T10:27:34.415Z,42.13
2018-01-26T10:30:02.259Z,45.13
2018-01-26T10:32:30.073Z,44.27
2018-01-26T10:34:57.903Z,42.80
2018-01-26T10:37:25.729Z,42.60
2018-01-26T10:39:53.547Z,41.17
2018-01-26T10:42:21.396Z,44.10
2018-01-26T10:44:49.224Z,43.70
2018-01-26T10:47:17.068Z,43.97
2018-01-26T10:49:44.883Z,40.47
2018-01-26T10:52:12.763Z,43.83
2018-01-26T10:54:40.595Z,44.10
2018-01-26T10:57:08.432Z,43.70
2018-01-26T10:59:36.243Z,40.53
2018-01-26T11:02:04.057Z,42.20
2018-01-26T11:04:31.880Z,40.50
2018-01-26T11:06:59.695Z,43.60
2018-01-26T11:09:27.518Z,43.43
2018-01-26T11:11:55.358Z,40.43
2018-01-26T11:14:23.173Z,38.63
2018-01-26T11:16:50.988Z,41.20
2018-01-26T11:19:18.887Z,42.97
2018-01-26T11:21:46.724Z,44.97
2018-01-26T11:24:14.594Z,46.07
2018-01-26T11:26:42.413Z,41.50
2018-01-26T11:29:10.262Z,40.40
2018-01-26T11:31:38.093Z,41.47
2018-01-26T11:34:05.936Z,43.60
2018-01-26T11:36:33.762Z,39.90
2018-01-26T11:39:01.589Z,42.37
2018-01-26T11:41:29.407Z,40.63
2018-01-26T11:43:57.227Z,44.03
2018-01-26T11:46:25.055Z,42.47
2018-01-26T11:48:52.874Z,39.73
2018-01-26T11:51:20.723Z,40.97
2018-01-26T11:53:48.541Z,39.67
2018-01-26T11:56:16.373Z,39.43
2018-01-26T11:58:44.196Z,37.60
2018-01-26T12:01:12.040Z,41.80
2018-01-26T12:03:39.851Z,37.57
2018-01-26T12:06:07.698Z,40.10
2018-01-26T12:08:35.517Z,38.70
2018-01-26T12:11:03.333Z,38.07
2018-01-26T12:13:31.153Z,39.47
2018-01-26T12:15:58.959Z,36.93
2018-01-26T12:18:26.850Z,38.33
2018-01-26T12:20:54.664Z,34.97
2018-01-26T12:23:22.476Z,36.80
2018-01-26T12:25:50.332Z,37.40
2018-01-26T12:28:18.198Z,36.40
2018-01-26T12:30:46.043Z,35.43
2018-01-26T12:33:13.879Z,37.30
2018-01-26T12:35:41.696Z,36.40
2018-01-26T12:38:09.528Z,34.90
2018-01-26T12:40:37.355Z,38.43
2018-01-26T12:43:05.220Z,39.17
2018-01-26T12:45:33.037Z,42.60
2018-01-26T12:48:00.883Z,38.27
2018-01-26T12:50:28.725Z,43.50
2018-01-26T12:52:56.568Z,41.83
2018-01-26T12:55:24.411Z,39.53
2018-01-26T12:57:52.260Z,46.57
2018-01-26T13:00:20.107Z,42.87
2018-01-26T13:02:47.958Z,47.23
2018-01-26T13:05:15.799Z,49.70
2018-01-26T13:07:43.676Z,49.23
2018-01-26T13:10:11.509Z,45.47
2018-01-26T13:12:39.363Z,49.90
2018-01-26T13:15:07.188Z,46.60
2018-01-26T13:17:35.031Z,53.60
2018-01-26T13:20:02.900Z,52.37
2018-01-26T13:22:30.768Z,54.77
2018-01-26T13:24:58.596Z,52.03
2018-01-26T13:27:26.466Z,55.67
2018-01-26T13:29:54.311Z,54.73
2018-01-26T13:32:22.159Z,51.20
2018-01-26T13:34:49.963Z,53.53
2018-01-26T13:37:17.787Z,50.53
2018-01-26T13:39:45.685Z,52.60
2018-01-26T13:42:13.469Z,49.60
2018-01-26T13:44:41.309Z,52.50
2018-01-26T13:47:09.177Z,50.23
2018-01-26T13:49:37.032Z,48.10
2018-01-26T13:52:04.911Z,72.60
2018-01-26T13:54:32.748Z,61.90
2018-01-26T13:57:00.594Z,74.37
2018-01-26T13:59:28.444Z,53.27
2018-01-26T14:01:56.299Z,52.27
2018-01-26T14:04:24.147Z,49.93
2018-01-26T14:06:51.968Z,49.67
2018-01-26T14:09:19.817Z,46.90
2018-01-26T14:11:47.660Z,48.70
2018-01-26T14:14:15.492Z,48.80
2018-01-26T14:16:43.334Z,47.07
2018-01-26T14:19:11.179Z,45.80
2018-01-26T14:21:39.013Z,49.63
2018-01-26T14:24:06.838Z,48.53
2018-01-26T14:26:34.811Z,52.40
2018-01-26T14:29:02.553Z,55.70
2018-01-26T14:31:30.391Z,54.30
2018-01-26T14:33:58.225Z,56.13
2018-01-26T14:36:26.080Z,56.20
2018-01-26T14:38:53.913Z,51.00
2018-01-26T14:41:21.728Z,48.57
2018-01-26T14:43:49.535Z,53.80
2018-01-26T14:46:17.367Z,46.40
2018-01-26T14:48:45.203Z,48.50
2018-01-26T14:51:13.048Z,50.17
2018-01-26T14:53:40.880Z,47.40
2018-01-26T14:56:08.736Z,46.30
2018-01-26T14:58:36.551Z,47.27
2018-01-26T15:01:04.395Z,46.20
2018-01-26T15:03:32.219Z,45.97
2018-01-26T15:06:00.047Z,44.80
2018-01-26T15:08:27.919Z,44.77
2018-01-26T15:10:55.768Z,51.07
2018-01-26T15:13:23.624Z,52.07
2018-01-26T15:15:51.452Z,42.70
2018-01-26T15:18:19.268Z,47.40
2018-01-26T15:20:47.128Z,43.47
2018-01-26T15:23:14.969Z,47.83
2018-01-26T15:25:42.826Z,67.53
2018-01-26T15:28:10.703Z,97.63
2018-01-26T15:30:38.538Z,53.60
2018-01-26T15:33:06.387Z,44.00
2018-01-26T15:35:34.229Z,40.77
2018-01-26T15:38:02.083Z,40.83
2018-01-26T15:40:29.887Z,43.07
2018-01-26T15:42:57.718Z,39.17
2018-01-26T15:45:25.547Z,36.63
2018-01-26T15:47:53.384Z,38.27
2018-01-26T15:50:21.221Z,41.20
2018-01-26T15:52:49.063Z,37.87
2018-01-26T15:55:16.953Z,37.00
2018-01-26T15:57:44.791Z,35.47
2018-01-26T16:00:12.615Z,34.47
2018-01-26T16:02:40.463Z,39.60
2018-01-26T16:05:08.300Z,41.00
2018-01-26T16:07:36.155Z,42.20
2018-01-26T16:10:03.988Z,41.93
2018-01-26T16:12:31.835Z,42.53
2018-01-26T16:14:59.683Z,43.47
2018-01-26T16:17:27.524Z,41.67
2018-01-26T16:19:55.359Z,38.20
2018-01-26T16:22:23.203Z,37.40
2018-01-26T16:24:51.038Z,35.83
2018-01-26T16:27:18.872Z,33.43
2018-01-26T16:29:46.719Z,33.57
2018-01-26T16:32:14.622Z,35.10
2018-01-26T16:34:42.472Z,33.97
2018-01-26T16:37:10.303Z,36.63
2018-01-26T16:39:38.130Z,37.53
2018-01-26T16:42:05.961Z,76.80
2018-01-26T16:44:33.831Z,35.70
2018-01-26T16:47:01.658Z,31.33
2018-01-26T16:49:29.484Z,29.40
2018-01-26T16:51:57.331Z,27.10
2018-01-26T16:54:25.163Z,27.67
2018-01-26T16:56:52.983Z,28.97
2018-01-26T16:59:20.824Z,26.00
2018-01-26T17:01:48.758Z,27.63
2018-01-26T17:04:16.599Z,26.50
2018-01-26T17:06:44.504Z,28.43
2018-01-26T17:09:12.347Z,29.00
2018-01-26T17:11:40.191Z,29.37
2018-01-26T17:14:08.067Z,27.30
2018-01-26T17:16:35.903Z,28.20
2018-01-26T17:19:03.735Z,32.17
2018-01-26T17:21:31.597Z,30.70
2018-01-26T17:23:59.421Z,30.20
2018-01-26T17:26:27.272Z,27.57
2018-01-26T17:28:55.110Z,26.97
2018-01-26T17:31:22.964Z,29.40
2018-01-26T17:33:50.790Z,31.43
2018-01-26T17:36:18.616Z,26.80
2018-01-26T17:38:46.447Z,32.37
2018-01-26T17:41:14.294Z,26.97
2018-01-26T17:43:42.132Z,33.17
2018-01-26T17:46:09.976Z,30.27
2018-01-26T17:48:37.797Z,31.33
2018-01-26T17:51:05.617Z,29.70
2018-01-26T17:53:33.424Z,31.97
2018-01-26T17:56:01.252Z,31.00
2018-01-26T17:58:29.080Z,33.33
2018-01-26T18:00:56.912Z,34.67
2018-01-26T18:03:24.753Z,34.30
2018-01-26T18:05:52.579Z,34.90
2018-01-26T18:08:20.391Z,29.80
2018-01-26T18:10:48.229Z,31.80
2018-01-26T18:13:16.036Z,30.33
2018-01-26T18:15:43.873Z,30.67
2018-01-26T18:18:12.864Z,31.77
2018-01-26T18:20:40.706Z,26.93
2018-01-26T18:23:08.571Z,30.77
2018-01-26T18:25:36.380Z,30.70
2018-01-26T18:28:04.207Z,29.70
2018-01-26T18:30:32.058Z,32.33
2018-01-26T18:32:59.936Z,31.23
2018-01-26T18:35:28.786Z,27.57
2018-01-26T18:41:04.087Z,32.00
2018-01-26T18:43:38.749Z,32.47
2018-01-26T18:46:16.178Z,32.50
2018-01-26T18:51:45.557Z,31.70
2018-01-26T18:57:07.689Z,34.23
2018-01-26T18:59:37.242Z,28.40
2018-01-26T19:02:08.667Z,35.97
2018-01-26T19:04:37.497Z,32.10
2018-01-26T19:09:52.672Z,42.20
2018-01-26T19:12:20.527Z,41.67
2018-01-26T19:14:49.981Z,43.60
2018-01-26T19:26:28.906Z,22.00
2018-01-26T19:29:07.616Z,33.13
2018-01-26T19:34:37.383Z,43.10
2018-01-26T19:43:11.144Z,40.53
2018-01-26T19:48:34.432Z,45.83
2018-01-26T19:51:09.525Z,42.13
2018-01-26T19:53:38.885Z,47.10
2018-01-26T19:56:09.030Z,46.57
2018-01-26T19:58:36.868Z,46.30
2018-01-26T20:10:15.185Z,41.73
2018-01-26T20:15:39.073Z,37.67
2018-01-26T20:21:08.204Z,33.77
2018-01-26T20:23:39.397Z,32.87
2018-01-26T20:29:11.667Z,31.60
2018-01-26T20:31:40.029Z,33.17
2018-01-26T20:37:02.999Z,31.73
2018-01-26T20:39:31.963Z,30.43
2018-01-26T20:42:07.753Z,31.80
2018-01-26T20:47:33.327Z,30.73
2018-01-26T20:53:07.226Z,28.10
2018-01-26T20:55:46.050Z,31.73
2018-01-26T21:01:15.224Z,30.87
2018-01-26T21:03:54.463Z,29.37
2018-01-26T21:06:37.227Z,30.50
2018-01-26T21:09:08.794Z,28.10
2018-01-26T21:17:13.323Z,28.93
2018-01-26T21:19:44.442Z,29.07
2018-01-26T21:22:13.437Z,30.90
2018-01-26T21:27:37.518Z,27.40
2018-01-26T21:44:32.695Z,27.77
2018-01-26T21:59:05.563Z,28.10
2018-01-26T22:01:40.974Z,26.60
2018-01-26T22:06:49.810Z,25.50
2018-01-26T22:15:05.943Z,23.67
2018-01-26T22:23:39.662Z,24.70
2018-01-26T22:26:08.133Z,25.27
2018-01-26T22:34:18.702Z,28.47
2018-01-26T22:36:47.225Z,26.57
2018-01-26T22:42:12.893Z,26.63
2018-01-26T22:47:42.229Z,27.20
2018-01-26T22:50:14.323Z,27.70
2018-01-26T22:52:42.850Z,26.47
2018-01-26T22:55:10.700Z,28.07
2018-01-26T23:12:21.335Z,25.90
2018-01-26T23:23:37.565Z,21.87
2018-01-26T23:26:06.077Z,23.40
2018-01-26T23:28:34.053Z,22.23
2018-01-26T23:31:02.028Z,20.23
2018-01-26T23:36:24.111Z,20.40
2018-01-26T23:39:07.664Z,18.80
2018-01-26T23:41:35.639Z,19.27
2018-01-26T23:44:07.461Z,16.87
2018-01-26T23:46:38.001Z,17.83
2018-01-26T23:49:06.173Z,18.20
2018-01-26T23:51:37.456Z,17.93
2018-01-26T23:54:06.955Z,19.73
2018-01-26T23:56:34.797Z,19.63
2018-01-26T23:59:02.653Z,20.40
